Portada
METAR-TAF:

METAR-TAF

Aeropuertos :

Aeropuerto de Roma-Fiumicino

Roma-Fiumicino, Italia

latitud: 41-48N, longitud: 012-14E, altitud: 2 m

Observación

El informe se hizo hace 21 minutos, a las 17:20 UTC
Viento 3 kt del noreste
Temperatura 8°C
Humedad 57%
Presión 1010 hPa
Visibilidad 10 km o más
sin nubes por debajo de 1500 m y sin presencia de cumulonimbus.

METAR: LIRF 111720Z 04003KT CAVOK 08/M00 Q1010 NOSIG

Hora: 18:41 (17:41 UTC)

Pronóstico

El informe se hizo hace 41 minutos, a las 17:00 UTC
Pronóstico válido del 11 a las 18 UTC al 12 a las 24 UTC
Viento 5 kt con dirección variable
Visibilidad 10 km o más
Nubes dispersas a una altura de 3000 ft
Temporalmente
del 12 a las 07 UTC al 12 a las 15 UTC
chaparrones de lluvia
Temporalmente
del 12 a las 20 UTC al 12 a las 24 UTC
chaparrones de lluvia

TAF: LIRF 111700Z 1118/1224 VRB05KT 9999 SCT030 TEMPO 1207/1215 SHRA TEMPO 1220/1224 SHRA

Observaciones y pronósticos meteorológicos de más de 4000 aeropuertos (mensajes METAR y TAF).

Los puntos amarillos y rojos representan las estaciones disponibles.

Ponga el ratón en el punto deseado para ver el nombre de la estación.

Haga clic para ver las observaciones y los pronósticos meteorológicos.

Para cambiar el mapa : haga clic en los botones verdes con una cruz de color negro para hacer un zoom, en el botón verde con un guión para alejar o en las flechas verdes para mapas adyacentes.


METAR-TAF: